Accueil
METAR-TAF:

METAR-TAF

Aéroports :

Golden Triangle Regional Airport

Columbus / West Point / Starkville, Mississippi, États-Unis

latitude: 33-27N, longitude: 088-35W, altitude: 80 m

Observation

Le bulletin a été fait il y a 36 minutes, à 06:56 UTC
Vent 3 kt de ouest
Température 26°C
Humidité 74%
Pression 1020 hPa
Visibilité: 16.1 km
Ciel clair

METAR: KGTR 140656Z AUTO 26003KT 10SM CLR 26/21 A3012 RMK AO2 SLP202 T02560206

Heure: 02:32 (07:32 UTC)

Prévision

Le bulletin a été fait il y a 1 heure et 56 minutes, à 05:36 UTC
Prévision valable du 14 à 06 UTC au 15 à 06 UTC
Vent 3 kt de nord-ouest
Visibilité: 10 km
Nuages épars à une hauteur de 8000 ft
Nuages épars à une hauteur de 15000 ft

TAF: KGTR 140536Z 1406/1506 31003KT P6SM SCT080 SCT150

Observations et prévisions météorologiques de plus de 4000 aéroports (messages METAR et TAF).

Les stations disponibles sont représentées par des disques jaunes et rouges sur la carte.

Passer la souris dessus pour voir le nom de la station.

Cliquer dessus pour voir les observations et prévisions météorologiques.

Pour changer de carte: cliquez sur les boutons verts avec une croix noire pour zoomer, sur le bouton vert avec un tiret pour effectuer un zoom arrière, ou sur les flèches vertes pour les cartes adjacentes.


METAR-TAF: